sensor_id;sensor_type;location;lat;lon;timestamp;P1;durP1;ratioP1;P2;durP2;ratioP2
58208;SDS011;44006;52.028;4.696;2022-10-26T00:02:19;12.52;;;6.32;;
58208;SDS011;44006;52.028;4.696;2022-10-26T00:04:44;13.10;;;6.63;;
58208;SDS011;44006;52.028;4.696;2022-10-26T00:07:10;8.20;;;5.85;;
58208;SDS011;44006;52.028;4.696;2022-10-26T00:09:35;13.68;;;6.13;;
58208;SDS011;44006;52.028;4.696;2022-10-26T00:12:00;9.25;;;5.65;;
58208;SDS011;44006;52.028;4.696;2022-10-26T00:14:26;12.65;;;6.40;;
58208;SDS011;44006;52.028;4.696;2022-10-26T00:16:51;12.18;;;6.95;;
58208;SDS011;44006;52.028;4.696;2022-10-26T00:19:16;14.15;;;6.47;;
58208;SDS011;44006;52.028;4.696;2022-10-26T00:21:42;12.93;;;6.50;;
58208;SDS011;44006;52.028;4.696;2022-10-26T00:24:07;11.60;;;6.27;;
58208;SDS011;44006;52.028;4.696;2022-10-26T00:26:33;13.73;;;6.28;;
58208;SDS011;44006;52.028;4.696;2022-10-26T00:28:58;13.30;;;6.25;;
58208;SDS011;44006;52.028;4.696;2022-10-26T00:31:24;11.95;;;6.18;;
58208;SDS011;44006;52.028;4.696;2022-10-26T00:33:55;10.90;;;6.05;;
58208;SDS011;44006;52.028;4.696;2022-10-26T00:36:21;14.00;;;6.82;;
58208;SDS011;44006;52.028;4.696;2022-10-26T00:38:52;12.77;;;6.78;;
58208;SDS011;44006;52.028;4.696;2022-10-26T00:43:44;12.47;;;6.30;;
58208;SDS011;44006;52.028;4.696;2022-10-26T00:46:19;10.98;;;7.85;;
58208;SDS011;44006;52.028;4.696;2022-10-26T00:48:46;15.60;;;7.85;;
58208;SDS011;44006;52.028;4.696;2022-10-26T00:51:19;13.80;;;7.72;;
58208;SDS011;44006;52.028;4.696;2022-10-26T00:53:47;11.68;;;6.68;;
58208;SDS011;44006;52.028;4.696;2022-10-26T00:56:13;11.50;;;6.47;;
58208;SDS011;44006;52.028;4.696;2022-10-26T00:58:39;11.88;;;7.80;;
58208;SDS011;44006;52.028;4.696;2022-10-26T01:01:04;12.45;;;7.32;;
58208;SDS011;44006;52.028;4.696;2022-10-26T01:03:29;13.63;;;7.38;;
58208;SDS011;44006;52.028;4.696;2022-10-26T01:05:57;16.95;;;8.10;;
58208;SDS011;44006;52.028;4.696;2022-10-26T01:08:22;14.80;;;7.97;;
58208;SDS011;44006;52.028;4.696;2022-10-26T01:10:48;16.45;;;8.73;;
58208;SDS011;44006;52.028;4.696;2022-10-26T01:13:13;13.00;;;7.80;;
58208;SDS011;44006;52.028;4.696;2022-10-26T01:18:18;17.03;;;8.17;;
58208;SDS011;44006;52.028;4.696;2022-10-26T01:23:28;15.02;;;7.38;;
58208;SDS011;44006;52.028;4.696;2022-10-26T01:26:07;14.30;;;7.93;;
58208;SDS011;44006;52.028;4.696;2022-10-26T01:31:28;17.90;;;8.07;;
58208;SDS011;44006;52.028;4.696;2022-10-26T01:34:00;12.80;;;8.15;;
58208;SDS011;44006;52.028;4.696;2022-10-26T01:36:32;14.77;;;8.07;;
58208;SDS011;44006;52.028;4.696;2022-10-26T01:39:02;16.75;;;8.55;;
58208;SDS011;44006;52.028;4.696;2022-10-26T01:41:32;15.80;;;7.80;;
58208;SDS011;44006;52.028;4.696;2022-10-26T01:44:02;13.63;;;8.00;;
58208;SDS011;44006;52.028;4.696;2022-10-26T01:46:31;13.07;;;8.50;;
58208;SDS011;44006;52.028;4.696;2022-10-26T01:48:58;14.98;;;8.63;;
58208;SDS011;44006;52.028;4.696;2022-10-26T01:51:25;16.45;;;8.45;;
58208;SDS011;44006;52.028;4.696;2022-10-26T01:53:50;16.40;;;9.20;;
58208;SDS011;44006;52.028;4.696;2022-10-26T01:56:26;14.82;;;9.20;;
58208;SDS011;44006;52.028;4.696;2022-10-26T02:06:40;17.33;;;8.98;;
58208;SDS011;44006;52.028;4.696;2022-10-26T02:11:44;23.60;;;9.57;;
58208;SDS011;44006;52.028;4.696;2022-10-26T02:16:44;18.95;;;9.00;;
58208;SDS011;44006;52.028;4.696;2022-10-26T02:19:28;18.58;;;9.10;;
58208;SDS011;44006;52.028;4.696;2022-10-26T02:22:04;17.83;;;9.18;;
58208;SDS011;44006;52.028;4.696;2022-10-26T02:24:30;15.13;;;8.90;;
58208;SDS011;44006;52.028;4.696;2022-10-26T02:26:57;16.05;;;9.18;;
58208;SDS011;44006;52.028;4.696;2022-10-26T02:29:24;18.13;;;10.68;;
58208;SDS011;44006;52.028;4.696;2022-10-26T02:31:49;13.23;;;8.93;;
58208;SDS011;44006;52.028;4.696;2022-10-26T02:34:17;14.73;;;9.30;;
58208;SDS011;44006;52.028;4.696;2022-10-26T02:36:44;15.57;;;9.43;;
58208;SDS011;44006;52.028;4.696;2022-10-26T02:39:11;15.07;;;8.85;;
58208;SDS011;44006;52.028;4.696;2022-10-26T02:41:38;15.23;;;9.05;;
58208;SDS011;44006;52.028;4.696;2022-10-26T02:44:07;15.57;;;8.85;;
58208;SDS011;44006;52.028;4.696;2022-10-26T02:46:34;16.83;;;9.20;;
58208;SDS011;44006;52.028;4.696;2022-10-26T02:48:59;15.70;;;9.50;;
58208;SDS011;44006;52.028;4.696;2022-10-26T02:51:33;16.17;;;9.23;;
58208;SDS011;44006;52.028;4.696;2022-10-26T02:54:01;15.27;;;9.15;;
58208;SDS011;44006;52.028;4.696;2022-10-26T02:56:32;21.08;;;9.43;;
58208;SDS011;44006;52.028;4.696;2022-10-26T02:58:58;15.27;;;8.52;;
58208;SDS011;44006;52.028;4.696;2022-10-26T03:01:24;13.55;;;8.90;;
58208;SDS011;44006;52.028;4.696;2022-10-26T03:03:51;18.15;;;9.13;;
58208;SDS011;44006;52.028;4.696;2022-10-26T03:06:21;14.38;;;9.00;;
58208;SDS011;44006;52.028;4.696;2022-10-26T03:08:47;13.30;;;9.68;;
58208;SDS011;44006;52.028;4.696;2022-10-26T03:11:12;17.02;;;8.80;;
58208;SDS011;44006;52.028;4.696;2022-10-26T03:13:37;16.07;;;8.33;;
58208;SDS011;44006;52.028;4.696;2022-10-26T03:16:02;14.43;;;9.02;;
58208;SDS011;44006;52.028;4.696;2022-10-26T03:18:28;13.70;;;8.82;;
58208;SDS011;44006;52.028;4.696;2022-10-26T03:20:53;14.30;;;8.97;;
58208;SDS011;44006;52.028;4.696;2022-10-26T03:23:18;13.57;;;8.90;;
58208;SDS011;44006;52.028;4.696;2022-10-26T03:25:43;16.63;;;8.83;;
58208;SDS011;44006;52.028;4.696;2022-10-26T03:28:08;18.23;;;9.32;;
58208;SDS011;44006;52.028;4.696;2022-10-26T03:30:34;16.00;;;8.37;;
58208;SDS011;44006;52.028;4.696;2022-10-26T03:32:59;14.77;;;8.30;;
58208;SDS011;44006;52.028;4.696;2022-10-26T03:35:24;14.18;;;8.40;;
58208;SDS011;44006;52.028;4.696;2022-10-26T03:37:49;14.18;;;8.15;;
58208;SDS011;44006;52.028;4.696;2022-10-26T03:40:15;14.70;;;8.68;;
58208;SDS011;44006;52.028;4.696;2022-10-26T03:42:40;15.93;;;8.73;;
58208;SDS011;44006;52.028;4.696;2022-10-26T03:45:06;19.30;;;8.02;;
58208;SDS011;44006;52.028;4.696;2022-10-26T03:47:32;16.88;;;9.18;;
58208;SDS011;44006;52.028;4.696;2022-10-26T03:49:58;11.60;;;8.10;;
58208;SDS011;44006;52.028;4.696;2022-10-26T03:52:24;15.88;;;9.02;;
58208;SDS011;44006;52.028;4.696;2022-10-26T03:54:49;15.90;;;7.78;;
58208;SDS011;44006;52.028;4.696;2022-10-26T03:57:15;16.77;;;7.97;;
58208;SDS011;44006;52.028;4.696;2022-10-26T03:59:40;17.42;;;8.15;;
58208;SDS011;44006;52.028;4.696;2022-10-26T04:02:05;17.20;;;7.50;;
58208;SDS011;44006;52.028;4.696;2022-10-26T04:04:31;13.70;;;7.25;;
58208;SDS011;44006;52.028;4.696;2022-10-26T04:06:56;13.40;;;7.95;;
58208;SDS011;44006;52.028;4.696;2022-10-26T04:09:21;14.35;;;7.93;;
58208;SDS011;44006;52.028;4.696;2022-10-26T04:11:46;13.82;;;8.18;;
58208;SDS011;44006;52.028;4.696;2022-10-26T04:14:12;11.35;;;7.43;;
58208;SDS011;44006;52.028;4.696;2022-10-26T04:16:37;15.68;;;7.20;;
58208;SDS011;44006;52.028;4.696;2022-10-26T04:19:02;13.00;;;7.32;;
58208;SDS011;44006;52.028;4.696;2022-10-26T04:21:27;16.45;;;7.40;;
58208;SDS011;44006;52.028;4.696;2022-10-26T04:23:52;15.70;;;8.73;;
58208;SDS011;44006;52.028;4.696;2022-10-26T04:26:18;12.33;;;7.60;;
58208;SDS011;44006;52.028;4.696;2022-10-26T04:28:43;15.55;;;7.90;;
58208;SDS011;44006;52.028;4.696;2022-10-26T04:31:08;16.07;;;8.17;;
58208;SDS011;44006;52.028;4.696;2022-10-26T04:33:33;12.07;;;7.68;;
58208;SDS011;44006;52.028;4.696;2022-10-26T04:35:59;14.55;;;8.18;;
58208;SDS011;44006;52.028;4.696;2022-10-26T04:38:27;16.92;;;7.93;;
58208;SDS011;44006;52.028;4.696;2022-10-26T04:40:52;11.95;;;7.78;;
58208;SDS011;44006;52.028;4.696;2022-10-26T04:43:17;15.73;;;8.10;;
58208;SDS011;44006;52.028;4.696;2022-10-26T04:45:43;12.50;;;8.10;;
58208;SDS011;44006;52.028;4.696;2022-10-26T04:48:09;19.48;;;7.97;;
58208;SDS011;44006;52.028;4.696;2022-10-26T04:50:34;14.85;;;8.90;;
58208;SDS011;44006;52.028;4.696;2022-10-26T04:53:00;16.30;;;8.30;;
58208;SDS011;44006;52.028;4.696;2022-10-26T04:55:26;15.30;;;8.55;;
58208;SDS011;44006;52.028;4.696;2022-10-26T04:57:51;14.52;;;7.93;;
58208;SDS011;44006;52.028;4.696;2022-10-26T05:00:17;14.10;;;7.90;;
58208;SDS011;44006;52.028;4.696;2022-10-26T05:02:42;12.30;;;7.57;;
58208;SDS011;44006;52.028;4.696;2022-10-26T05:05:08;13.88;;;8.02;;
58208;SDS011;44006;52.028;4.696;2022-10-26T05:07:33;18.67;;;7.70;;
58208;SDS011;44006;52.028;4.696;2022-10-26T05:09:59;12.13;;;7.85;;
58208;SDS011;44006;52.028;4.696;2022-10-26T05:12:24;16.65;;;8.70;;
58208;SDS011;44006;52.028;4.696;2022-10-26T05:14:49;15.23;;;8.13;;
58208;SDS011;44006;52.028;4.696;2022-10-26T05:17:14;13.57;;;8.03;;
58208;SDS011;44006;52.028;4.696;2022-10-26T05:19:39;16.55;;;8.18;;
58208;SDS011;44006;52.028;4.696;2022-10-26T05:22:05;11.50;;;8.52;;
58208;SDS011;44006;52.028;4.696;2022-10-26T05:24:30;12.33;;;7.90;;
58208;SDS011;44006;52.028;4.696;2022-10-26T05:26:55;14.80;;;8.23;;
58208;SDS011;44006;52.028;4.696;2022-10-26T05:29:20;14.98;;;8.02;;
58208;SDS011;44006;52.028;4.696;2022-10-26T05:31:46;15.60;;;7.95;;
58208;SDS011;44006;52.028;4.696;2022-10-26T05:34:11;17.03;;;8.97;;
58208;SDS011;44006;52.028;4.696;2022-10-26T05:36:36;14.32;;;8.07;;
58208;SDS011;44006;52.028;4.696;2022-10-26T05:39:02;17.17;;;8.10;;
58208;SDS011;44006;52.028;4.696;2022-10-26T05:41:27;11.68;;;7.45;;
58208;SDS011;44006;52.028;4.696;2022-10-26T05:43:52;12.32;;;7.20;;
58208;SDS011;44006;52.028;4.696;2022-10-26T05:46:18;14.23;;;7.60;;
58208;SDS011;44006;52.028;4.696;2022-10-26T05:48:43;15.30;;;7.33;;
58208;SDS011;44006;52.028;4.696;2022-10-26T05:51:09;13.15;;;7.75;;
58208;SDS011;44006;52.028;4.696;2022-10-26T05:53:36;14.32;;;7.70;;
58208;SDS011;44006;52.028;4.696;2022-10-26T05:56:01;11.13;;;7.75;;
58208;SDS011;44006;52.028;4.696;2022-10-26T05:58:27;12.80;;;7.57;;
58208;SDS011;44006;52.028;4.696;2022-10-26T06:01:08;13.65;;;7.13;;
58208;SDS011;44006;52.028;4.696;2022-10-26T06:03:57;18.02;;;7.30;;
58208;SDS011;44006;52.028;4.696;2022-10-26T06:06:33;15.53;;;7.37;;
58208;SDS011;44006;52.028;4.696;2022-10-26T06:09:01;12.32;;;7.18;;
58208;SDS011;44006;52.028;4.696;2022-10-26T06:11:27;11.40;;;6.63;;
58208;SDS011;44006;52.028;4.696;2022-10-26T06:13:52;11.25;;;6.35;;
58208;SDS011;44006;52.028;4.696;2022-10-26T06:18:50;13.47;;;6.23;;
58208;SDS011;44006;52.028;4.696;2022-10-26T06:24:08;9.63;;;5.53;;
58208;SDS011;44006;52.028;4.696;2022-10-26T06:26:45;13.48;;;6.55;;
58208;SDS011;44006;52.028;4.696;2022-10-26T06:31:44;14.10;;;5.75;;
58208;SDS011;44006;52.028;4.696;2022-10-26T06:34:09;13.77;;;5.93;;
58208;SDS011;44006;52.028;4.696;2022-10-26T06:36:35;9.52;;;5.50;;
58208;SDS011;44006;52.028;4.696;2022-10-26T06:39:06;8.68;;;5.60;;
58208;SDS011;44006;52.028;4.696;2022-10-26T06:41:33;11.48;;;5.63;;
58208;SDS011;44006;52.028;4.696;2022-10-26T06:43:59;11.93;;;6.03;;
58208;SDS011;44006;52.028;4.696;2022-10-26T06:57:09;13.02;;;5.75;;
58208;SDS011;44006;52.028;4.696;2022-10-26T06:59:41;9.13;;;5.70;;
58208;SDS011;44006;52.028;4.696;2022-10-26T07:02:08;10.95;;;5.80;;
58208;SDS011;44006;52.028;4.696;2022-10-26T07:04:34;9.57;;;5.95;;
58208;SDS011;44006;52.028;4.696;2022-10-26T07:06:59;10.23;;;5.35;;
58208;SDS011;44006;52.028;4.696;2022-10-26T07:09:24;14.07;;;6.20;;
58208;SDS011;44006;52.028;4.696;2022-10-26T07:11:49;11.82;;;6.00;;
58208;SDS011;44006;52.028;4.696;2022-10-26T07:14:14;12.18;;;6.15;;
58208;SDS011;44006;52.028;4.696;2022-10-26T07:16:40;11.52;;;6.63;;
58208;SDS011;44006;52.028;4.696;2022-10-26T07:19:05;12.98;;;5.63;;
58208;SDS011;44006;52.028;4.696;2022-10-26T07:21:30;9.50;;;5.63;;
58208;SDS011;44006;52.028;4.696;2022-10-26T07:23:55;9.88;;;5.80;;
58208;SDS011;44006;52.028;4.696;2022-10-26T07:26:21;12.65;;;6.35;;
58208;SDS011;44006;52.028;4.696;2022-10-26T07:28:47;15.02;;;6.03;;
58208;SDS011;44006;52.028;4.696;2022-10-26T07:31:12;13.60;;;6.28;;
58208;SDS011;44006;52.028;4.696;2022-10-26T07:33:38;9.17;;;5.63;;
58208;SDS011;44006;52.028;4.696;2022-10-26T07:36:03;13.23;;;6.53;;
58208;SDS011;44006;52.028;4.696;2022-10-26T07:38:28;11.32;;;6.38;;
58208;SDS011;44006;52.028;4.696;2022-10-26T07:40:53;16.87;;;6.93;;
58208;SDS011;44006;52.028;4.696;2022-10-26T07:43:20;15.05;;;6.63;;
58208;SDS011;44006;52.028;4.696;2022-10-26T07:45:47;9.45;;;5.85;;
58208;SDS011;44006;52.028;4.696;2022-10-26T07:48:13;11.82;;;6.53;;
58208;SDS011;44006;52.028;4.696;2022-10-26T07:50:38;13.37;;;6.60;;
58208;SDS011;44006;52.028;4.696;2022-10-26T07:53:03;11.23;;;6.57;;
58208;SDS011;44006;52.028;4.696;2022-10-26T07:55:28;12.73;;;6.22;;
58208;SDS011;44006;52.028;4.696;2022-10-26T07:57:54;10.48;;;6.00;;
58208;SDS011;44006;52.028;4.696;2022-10-26T08:00:19;15.35;;;6.70;;
58208;SDS011;44006;52.028;4.696;2022-10-26T08:02:44;11.63;;;6.78;;
58208;SDS011;44006;52.028;4.696;2022-10-26T08:05:09;14.43;;;6.80;;
58208;SDS011;44006;52.028;4.696;2022-10-26T08:07:40;11.80;;;6.40;;
58208;SDS011;44006;52.028;4.696;2022-10-26T08:10:06;14.20;;;6.72;;
58208;SDS011;44006;52.028;4.696;2022-10-26T08:12:33;12.93;;;6.47;;
58208;SDS011;44006;52.028;4.696;2022-10-26T08:14:58;12.45;;;6.18;;
58208;SDS011;44006;52.028;4.696;2022-10-26T08:17:23;10.20;;;6.93;;
58208;SDS011;44006;52.028;4.696;2022-10-26T08:19:48;10.00;;;6.07;;
58208;SDS011;44006;52.028;4.696;2022-10-26T08:22:14;15.18;;;6.90;;
58208;SDS011;44006;52.028;4.696;2022-10-26T08:24:40;15.27;;;6.60;;
58208;SDS011;44006;52.028;4.696;2022-10-26T08:27:08;13.13;;;6.40;;
58208;SDS011;44006;52.028;4.696;2022-10-26T08:29:33;17.52;;;6.85;;
58208;SDS011;44006;52.028;4.696;2022-10-26T08:32:04;13.77;;;6.53;;
58208;SDS011;44006;52.028;4.696;2022-10-26T08:34:29;14.55;;;6.53;;
58208;SDS011;44006;52.028;4.696;2022-10-26T08:36:55;12.48;;;5.88;;
58208;SDS011;44006;52.028;4.696;2022-10-26T08:39:21;12.98;;;6.28;;
58208;SDS011;44006;52.028;4.696;2022-10-26T08:41:47;10.45;;;5.88;;
58208;SDS011;44006;52.028;4.696;2022-10-26T08:46:49;12.68;;;5.55;;
58208;SDS011;44006;52.028;4.696;2022-10-26T08:49:18;10.27;;;5.68;;
58208;SDS011;44006;52.028;4.696;2022-10-26T08:51:44;10.20;;;5.68;;
58208;SDS011;44006;52.028;4.696;2022-10-26T08:54:15;11.57;;;5.95;;
58208;SDS011;44006;52.028;4.696;2022-10-26T08:56:45;14.60;;;5.88;;
58208;SDS011;44006;52.028;4.696;2022-10-26T09:01:37;14.45;;;5.38;;
58208;SDS011;44006;52.028;4.696;2022-10-26T09:04:02;15.45;;;5.80;;
58208;SDS011;44006;52.028;4.696;2022-10-26T09:09:01;12.52;;;4.90;;
58208;SDS011;44006;52.028;4.696;2022-10-26T09:24:14;8.30;;;4.25;;
58208;SDS011;44006;52.028;4.696;2022-10-26T09:26:48;6.45;;;3.70;;
58208;SDS011;44006;52.028;4.696;2022-10-26T09:29:17;9.60;;;4.10;;
58208;SDS011;44006;52.028;4.696;2022-10-26T09:31:44;10.90;;;3.85;;
58208;SDS011;44006;52.028;4.696;2022-10-26T09:36:55;10.35;;;4.03;;
58208;SDS011;44006;52.028;4.696;2022-10-26T09:39:34;12.55;;;4.70;;
58208;SDS011;44006;52.028;4.696;2022-10-26T09:42:03;12.32;;;4.05;;
58208;SDS011;44006;52.028;4.696;2022-10-26T09:44:35;13.32;;;4.32;;
58208;SDS011;44006;52.028;4.696;2022-10-26T09:49:32;10.37;;;4.70;;
58208;SDS011;44006;52.028;4.696;2022-10-26T09:51:59;10.05;;;4.28;;
58208;SDS011;44006;52.028;4.696;2022-10-26T09:54:30;9.07;;;4.17;;
58208;SDS011;44006;52.028;4.696;2022-10-26T09:56:55;10.63;;;4.05;;
58208;SDS011;44006;52.028;4.696;2022-10-26T09:59:23;12.02;;;4.00;;
58208;SDS011;44006;52.028;4.696;2022-10-26T10:01:48;8.82;;;3.90;;
58208;SDS011;44006;52.028;4.696;2022-10-26T10:06:44;11.38;;;3.65;;
58208;SDS011;44006;52.028;4.696;2022-10-26T10:11:36;10.10;;;3.55;;
58208;SDS011;44006;52.028;4.696;2022-10-26T10:14:05;7.45;;;3.78;;
58208;SDS011;44006;52.028;4.696;2022-10-26T10:16:30;11.00;;;4.55;;
58208;SDS011;44006;52.028;4.696;2022-10-26T10:18:57;12.05;;;4.30;;
58208;SDS011;44006;52.028;4.696;2022-10-26T10:22:24;10.98;;;4.70;;
58208;SDS011;44006;52.028;4.696;2022-10-26T10:24:39;9.95;;;4.85;;
58208;SDS011;44006;52.028;4.696;2022-10-26T10:27:03;10.75;;;5.00;;
58208;SDS011;44006;52.028;4.696;2022-10-26T10:29:47;11.55;;;4.93;;
58208;SDS011;44006;52.028;4.696;2022-10-26T10:32:17;8.85;;;5.13;;
58208;SDS011;44006;52.028;4.696;2022-10-26T10:34:45;11.25;;;4.95;;
58208;SDS011;44006;52.028;4.696;2022-10-26T10:39:56;11.77;;;5.40;;
58208;SDS011;44006;52.028;4.696;2022-10-26T10:42:24;16.02;;;5.82;;
58208;SDS011;44006;52.028;4.696;2022-10-26T10:44:52;12.93;;;6.45;;
58208;SDS011;44006;52.028;4.696;2022-10-26T10:47:56;8.88;;;5.85;;
58208;SDS011;44006;52.028;4.696;2022-10-26T10:52:37;13.32;;;5.68;;
58208;SDS011;44006;52.028;4.696;2022-10-26T11:00:21;9.90;;;5.50;;
58208;SDS011;44006;52.028;4.696;2022-10-26T11:08:06;11.20;;;4.43;;
58208;SDS011;44006;52.028;4.696;2022-10-26T11:10:33;8.23;;;4.53;;
58208;SDS011;44006;52.028;4.696;2022-10-26T11:13:02;9.90;;;4.68;;
58208;SDS011;44006;52.028;4.696;2022-10-26T11:15:29;9.57;;;4.38;;
58208;SDS011;44006;52.028;4.696;2022-10-26T11:20:29;15.18;;;4.80;;
58208;SDS011;44006;52.028;4.696;2022-10-26T11:23:01;9.68;;;4.80;;
58208;SDS011;44006;52.028;4.696;2022-10-26T11:25:29;10.43;;;4.47;;
58208;SDS011;44006;52.028;4.696;2022-10-26T11:27:56;9.73;;;4.78;;
58208;SDS011;44006;52.028;4.696;2022-10-26T11:30:23;8.85;;;4.85;;
58208;SDS011;44006;52.028;4.696;2022-10-26T11:35:31;18.95;;;5.30;;
58208;SDS011;44006;52.028;4.696;2022-10-26T11:47:49;11.00;;;4.10;;
58208;SDS011;44006;52.028;4.696;2022-10-26T11:50:20;11.57;;;4.00;;
58208;SDS011;44006;52.028;4.696;2022-10-26T11:55:33;9.02;;;3.30;;
58208;SDS011;44006;52.028;4.696;2022-10-26T11:57:58;9.82;;;3.22;;
58208;SDS011;44006;52.028;4.696;2022-10-26T12:00:23;10.88;;;3.80;;
58208;SDS011;44006;52.028;4.696;2022-10-26T12:07:52;6.78;;;2.58;;
58208;SDS011;44006;52.028;4.696;2022-10-26T12:10:34;6.55;;;3.03;;
58208;SDS011;44006;52.028;4.696;2022-10-26T12:18:04;10.17;;;3.30;;
58208;SDS011;44006;52.028;4.696;2022-10-26T12:20:47;11.13;;;3.53;;
58208;SDS011;44006;52.028;4.696;2022-10-26T12:23:15;9.13;;;3.67;;
58208;SDS011;44006;52.028;4.696;2022-10-26T12:25:41;10.98;;;4.30;;
58208;SDS011;44006;52.028;4.696;2022-10-26T12:28:36;9.47;;;4.80;;
58208;SDS011;44006;52.028;4.696;2022-10-26T12:30:51;9.68;;;4.10;;
58208;SDS011;44006;52.028;4.696;2022-10-26T12:33:27;7.28;;;4.53;;
58208;SDS011;44006;52.028;4.696;2022-10-26T12:35:52;9.05;;;3.92;;
58208;SDS011;44006;52.028;4.696;2022-10-26T12:40:47;12.10;;;4.10;;
58208;SDS011;44006;52.028;4.696;2022-10-26T12:45:43;14.13;;;4.32;;
58208;SDS011;44006;52.028;4.696;2022-10-26T12:48:21;11.63;;;4.13;;
58208;SDS011;44006;52.028;4.696;2022-10-26T12:50:48;10.18;;;4.00;;
58208;SDS011;44006;52.028;4.696;2022-10-26T12:53:14;8.63;;;3.70;;
58208;SDS011;44006;52.028;4.696;2022-10-26T13:00:40;9.10;;;3.80;;
58208;SDS011;44006;52.028;4.696;2022-10-26T13:03:19;6.97;;;2.95;;
58208;SDS011;44006;52.028;4.696;2022-10-26T13:08:27;7.90;;;3.05;;
58208;SDS011;44006;52.028;4.696;2022-10-26T13:11:03;10.15;;;3.33;;
58208;SDS011;44006;52.028;4.696;2022-10-26T13:13:29;11.68;;;3.05;;
58208;SDS011;44006;52.028;4.696;2022-10-26T13:15:56;8.45;;;3.00;;
58208;SDS011;44006;52.028;4.696;2022-10-26T13:18:21;16.92;;;4.13;;
58208;SDS011;44006;52.028;4.696;2022-10-26T13:23:31;8.73;;;3.40;;
58208;SDS011;44006;52.028;4.696;2022-10-26T13:26:14;9.45;;;2.80;;
58208;SDS011;44006;52.028;4.696;2022-10-26T13:28:42;7.80;;;3.22;;
58208;SDS011;44006;52.028;4.696;2022-10-26T13:33:43;12.43;;;2.95;;
58208;SDS011;44006;52.028;4.696;2022-10-26T13:36:14;7.28;;;2.60;;
58208;SDS011;44006;52.028;4.696;2022-10-26T13:38:41;7.25;;;2.42;;
58208;SDS011;44006;52.028;4.696;2022-10-26T13:41:20;10.60;;;2.63;;
58208;SDS011;44006;52.028;4.696;2022-10-26T13:43:45;9.38;;;2.28;;
58208;SDS011;44006;52.028;4.696;2022-10-26T13:46:21;7.10;;;2.05;;
58208;SDS011;44006;52.028;4.696;2022-10-26T13:48:47;7.53;;;2.40;;
58208;SDS011;44006;52.028;4.696;2022-10-26T13:51:23;12.05;;;2.15;;
58208;SDS011;44006;52.028;4.696;2022-10-26T13:53:50;10.45;;;2.15;;
58208;SDS011;44006;52.028;4.696;2022-10-26T13:58:44;10.37;;;2.67;;
58208;SDS011;44006;52.028;4.696;2022-10-26T14:01:12;7.72;;;2.03;;
58208;SDS011;44006;52.028;4.696;2022-10-26T14:03:39;7.20;;;2.10;;
58208;SDS011;44006;52.028;4.696;2022-10-26T14:08:50;6.25;;;2.17;;
58208;SDS011;44006;52.028;4.696;2022-10-26T14:11:20;10.77;;;2.22;;
58208;SDS011;44006;52.028;4.696;2022-10-26T14:13:47;7.78;;;2.53;;
58208;SDS011;44006;52.028;4.696;2022-10-26T14:16:14;9.57;;;1.95;;
58208;SDS011;44006;52.028;4.696;2022-10-26T14:18:39;8.20;;;1.80;;
58208;SDS011;44006;52.028;4.696;2022-10-26T14:21:06;9.77;;;2.35;;
58208;SDS011;44006;52.028;4.696;2022-10-26T14:23:35;7.40;;;2.25;;
58208;SDS011;44006;52.028;4.696;2022-10-26T14:26:01;14.95;;;2.70;;
58208;SDS011;44006;52.028;4.696;2022-10-26T14:28:29;10.27;;;2.25;;
58208;SDS011;44006;52.028;4.696;2022-10-26T14:31:38;9.07;;;2.25;;
58208;SDS011;44006;52.028;4.696;2022-10-26T14:33:44;6.80;;;1.90;;
58208;SDS011;44006;52.028;4.696;2022-10-26T14:36:09;6.45;;;2.25;;
58208;SDS011;44006;52.028;4.696;2022-10-26T14:38:38;8.77;;;2.05;;
58208;SDS011;44006;52.028;4.696;2022-10-26T14:41:05;8.57;;;2.00;;
58208;SDS011;44006;52.028;4.696;2022-10-26T14:43:31;9.13;;;2.10;;
58208;SDS011;44006;52.028;4.696;2022-10-26T14:45:56;8.40;;;2.03;;
58208;SDS011;44006;52.028;4.696;2022-10-26T14:48:22;7.07;;;1.80;;
58208;SDS011;44006;52.028;4.696;2022-10-26T14:53:24;6.53;;;1.90;;
58208;SDS011;44006;52.028;4.696;2022-10-26T14:55:52;8.85;;;1.90;;
58208;SDS011;44006;52.028;4.696;2022-10-26T14:58:19;7.93;;;2.22;;
58208;SDS011;44006;52.028;4.696;2022-10-26T15:00:46;7.57;;;2.10;;
58208;SDS011;44006;52.028;4.696;2022-10-26T15:03:13;9.52;;;2.13;;
58208;SDS011;44006;52.028;4.696;2022-10-26T15:05:39;6.57;;;2.17;;
58208;SDS011;44006;52.028;4.696;2022-10-26T15:08:38;5.40;;;2.15;;
58208;SDS011;44006;52.028;4.696;2022-10-26T15:10:50;5.72;;;1.70;;
58208;SDS011;44006;52.028;4.696;2022-10-26T15:13:19;9.27;;;2.00;;
58208;SDS011;44006;52.028;4.696;2022-10-26T15:15:46;10.05;;;1.65;;
58208;SDS011;44006;52.028;4.696;2022-10-26T15:18:19;5.57;;;1.65;;
58208;SDS011;44006;52.028;4.696;2022-10-26T15:20:46;6.07;;;1.70;;
58208;SDS011;44006;52.028;4.696;2022-10-26T15:23:12;7.68;;;1.70;;
58208;SDS011;44006;52.028;4.696;2022-10-26T15:25:38;11.90;;;1.95;;
58208;SDS011;44006;52.028;4.696;2022-10-26T15:28:17;6.05;;;1.95;;
58208;SDS011;44006;52.028;4.696;2022-10-26T15:30:57;6.43;;;1.55;;
58208;SDS011;44006;52.028;4.696;2022-10-26T15:33:22;8.98;;;2.28;;
58208;SDS011;44006;52.028;4.696;2022-10-26T15:35:47;8.18;;;1.67;;
58208;SDS011;44006;52.028;4.696;2022-10-26T15:38:13;6.47;;;1.80;;
58208;SDS011;44006;52.028;4.696;2022-10-26T15:40:40;7.95;;;1.85;;
58208;SDS011;44006;52.028;4.696;2022-10-26T15:43:07;6.40;;;1.73;;
58208;SDS011;44006;52.028;4.696;2022-10-26T15:45:34;7.55;;;1.63;;
58208;SDS011;44006;52.028;4.696;2022-10-26T15:48:14;8.20;;;1.90;;
58208;SDS011;44006;52.028;4.696;2022-10-26T15:50:40;5.82;;;1.80;;
58208;SDS011;44006;52.028;4.696;2022-10-26T15:53:07;5.73;;;1.70;;
58208;SDS011;44006;52.028;4.696;2022-10-26T15:55:33;5.88;;;1.95;;
58208;SDS011;44006;52.028;4.696;2022-10-26T15:57:59;5.47;;;1.70;;
58208;SDS011;44006;52.028;4.696;2022-10-26T16:00:24;7.50;;;2.00;;
58208;SDS011;44006;52.028;4.696;2022-10-26T16:02:50;7.07;;;1.73;;
58208;SDS011;44006;52.028;4.696;2022-10-26T16:05:15;5.53;;;1.80;;
58208;SDS011;44006;52.028;4.696;2022-10-26T16:07:41;11.02;;;1.83;;
58208;SDS011;44006;52.028;4.696;2022-10-26T16:10:10;5.18;;;1.58;;
58208;SDS011;44006;52.028;4.696;2022-10-26T16:12:36;7.43;;;2.10;;
58208;SDS011;44006;52.028;4.696;2022-10-26T16:15:01;7.00;;;1.93;;
58208;SDS011;44006;52.028;4.696;2022-10-26T16:17:27;7.35;;;2.10;;
58208;SDS011;44006;52.028;4.696;2022-10-26T16:19:52;5.13;;;1.80;;
58208;SDS011;44006;52.028;4.696;2022-10-26T16:22:17;7.27;;;2.27;;
58208;SDS011;44006;52.028;4.696;2022-10-26T16:24:42;8.87;;;2.17;;
58208;SDS011;44006;52.028;4.696;2022-10-26T16:27:08;9.10;;;1.80;;
58208;SDS011;44006;52.028;4.696;2022-10-26T16:29:33;6.63;;;1.98;;
58208;SDS011;44006;52.028;4.696;2022-10-26T16:31:58;5.63;;;1.80;;
58208;SDS011;44006;52.028;4.696;2022-10-26T16:34:23;10.25;;;1.88;;
58208;SDS011;44006;52.028;4.696;2022-10-26T16:36:48;8.00;;;2.17;;
58208;SDS011;44006;52.028;4.696;2022-10-26T16:39:14;8.80;;;2.20;;
58208;SDS011;44006;52.028;4.696;2022-10-26T16:41:39;6.72;;;2.33;;
58208;SDS011;44006;52.028;4.696;2022-10-26T16:44:04;9.07;;;2.47;;
58208;SDS011;44006;52.028;4.696;2022-10-26T16:46:29;9.40;;;2.22;;
58208;SDS011;44006;52.028;4.696;2022-10-26T16:48:55;7.37;;;2.13;;
58208;SDS011;44006;52.028;4.696;2022-10-26T16:51:21;7.35;;;2.67;;
58208;SDS011;44006;52.028;4.696;2022-10-26T16:53:47;7.07;;;2.15;;
58208;SDS011;44006;52.028;4.696;2022-10-26T16:56:17;8.63;;;2.50;;
58208;SDS011;44006;52.028;4.696;2022-10-26T16:58:42;7.88;;;2.40;;
58208;SDS011;44006;52.028;4.696;2022-10-26T17:01:08;8.75;;;2.95;;
58208;SDS011;44006;52.028;4.696;2022-10-26T17:03:34;8.02;;;2.72;;